createdAt,value
2023-06-23T00:00:26.556Z,71.71
2023-06-23T00:02:54.121Z,71.73
2023-06-23T00:05:21.693Z,71.56
2023-06-23T00:07:49.129Z,71.55
2023-06-23T00:10:16.571Z,71.39
2023-06-23T00:12:44.163Z,71.40
2023-06-23T00:15:13.775Z,71.41
2023-06-23T00:17:43.151Z,71.41
2023-06-23T00:20:20.591Z,71.54
2023-06-23T00:22:48.063Z,71.57
2023-06-23T00:25:15.470Z,71.58
2023-06-23T00:27:46.438Z,71.68
2023-06-23T00:30:14.789Z,71.74
2023-06-23T00:32:42.629Z,71.65
2023-06-23T00:35:10.042Z,71.80
2023-06-23T00:37:40.389Z,71.91
2023-06-23T00:40:14.858Z,71.91
2023-06-23T00:42:54.273Z,71.86
2023-06-23T00:45:25.403Z,72.08
2023-06-23T00:47:52.909Z,72.14
2023-06-23T00:50:21.618Z,72.19
2023-06-23T00:52:52.724Z,72.27
2023-06-23T00:55:24.746Z,72.10
2023-06-23T00:57:57.187Z,72.12
2023-06-23T01:00:29.286Z,72.03
2023-06-23T01:03:01.332Z,72.05
2023-06-23T01:05:32.397Z,72.24
2023-06-23T01:08:15.461Z,72.13
2023-06-23T01:11:02.367Z,72.12
2023-06-23T01:13:39.034Z,72.44
2023-06-23T01:16:32.651Z,72.58
2023-06-23T01:19:25.655Z,72.45
2023-06-23T01:22:13.382Z,72.35
2023-06-23T01:25:08.981Z,72.56
2023-06-23T01:27:51.962Z,72.55
2023-06-23T01:30:19.377Z,72.55
2023-06-23T01:32:52.107Z,72.44
2023-06-23T01:35:26.974Z,72.54
2023-06-23T01:37:59.021Z,72.49
2023-06-23T01:40:26.388Z,72.63
2023-06-23T01:42:58.581Z,72.61
2023-06-23T01:45:30.173Z,72.63
2023-06-23T01:48:00.604Z,72.68
2023-06-23T01:50:28.357Z,72.90
2023-06-23T01:52:55.871Z,73.06
2023-06-23T01:56:53.251Z,73.47
2023-06-23T01:59:21.691Z,73.26
2023-06-23T02:01:49.187Z,73.25
2023-06-23T02:04:16.962Z,73.24
2023-06-23T02:06:46.934Z,73.23
2023-06-23T02:09:34.660Z,73.34
2023-06-23T02:12:04.734Z,73.46
2023-06-23T02:14:32.199Z,73.22
2023-06-23T02:16:59.739Z,73.26
2023-06-23T02:19:27.571Z,73.11
2023-06-23T02:21:55.109Z,72.87
2023-06-23T02:24:22.510Z,73.01
2023-06-23T02:26:49.993Z,73.12
2023-06-23T02:29:17.438Z,73.10
2023-06-23T02:31:45.828Z,73.06
2023-06-23T02:34:14.331Z,73.12
2023-06-23T02:36:46.041Z,73.13
2023-06-23T02:39:14.740Z,73.35
2023-06-23T02:41:42.502Z,73.51
2023-06-23T02:44:15.306Z,73.69
2023-06-23T02:46:43.929Z,73.71
2023-06-23T02:49:24.667Z,73.58
2023-06-23T02:51:53.788Z,73.75
2023-06-23T02:54:21.266Z,73.74
2023-06-23T02:56:48.751Z,73.69
2023-06-23T02:59:17.887Z,73.65
2023-06-23T03:01:46.399Z,73.67
2023-06-23T03:04:13.877Z,73.48
2023-06-23T03:06:42.049Z,73.38
2023-06-23T03:09:12.371Z,73.35
2023-06-23T03:11:40.107Z,73.07
2023-06-23T03:14:08.189Z,73.02
2023-06-23T03:17:01.181Z,72.90
2023-06-23T03:19:38.073Z,72.89
2023-06-23T03:22:08.386Z,72.91
2023-06-23T03:24:39.350Z,73.04
2023-06-23T03:27:10.882Z,72.88
2023-06-23T03:29:45.327Z,72.79
2023-06-23T03:32:14.390Z,72.85
2023-06-23T03:34:44.866Z,72.79
2023-06-23T03:37:12.577Z,72.62
2023-06-23T03:39:41.784Z,72.64
2023-06-23T03:42:09.727Z,72.56
2023-06-23T03:44:42.730Z,72.44
2023-06-23T03:47:15.811Z,72.52
2023-06-23T03:49:45.831Z,72.34
2023-06-23T03:52:13.673Z,72.38
2023-06-23T03:54:41.347Z,72.47
2023-06-23T03:57:10.757Z,72.43
2023-06-23T03:59:38.319Z,72.33
2023-06-23T04:02:05.784Z,72.19
2023-06-23T04:04:33.790Z,72.20
2023-06-23T04:07:01.292Z,71.97
2023-06-23T04:09:28.855Z,71.91
2023-06-23T04:11:57.007Z,71.65
2023-06-23T04:14:24.483Z,71.55
2023-06-23T04:16:51.953Z,71.57
2023-06-23T04:19:19.763Z,71.63
2023-06-23T04:21:47.338Z,71.43
2023-06-23T04:24:14.755Z,71.06
2023-06-23T04:26:47.040Z,71.16
2023-06-23T04:29:14.559Z,71.20
2023-06-23T04:31:41.999Z,71.14
2023-06-23T04:34:09.512Z,71.05
2023-06-23T04:36:42.045Z,71.12
2023-06-23T04:39:21.009Z,71.06
2023-06-23T04:41:49.858Z,71.08
2023-06-23T04:44:17.265Z,71.29
2023-06-23T04:46:44.624Z,71.10
2023-06-23T04:49:12.254Z,70.82
2023-06-23T04:51:47.505Z,70.63
2023-06-23T04:54:41.244Z,70.41
2023-06-23T04:57:17.002Z,70.36
2023-06-23T04:59:49.375Z,70.30
2023-06-23T05:02:16.866Z,70.14
2023-06-23T05:04:44.460Z,69.90
2023-06-23T05:07:13.076Z,69.70
2023-06-23T05:09:40.484Z,69.30
2023-06-23T05:12:12.535Z,68.87
2023-06-23T05:14:40.965Z,68.80
2023-06-23T05:17:11.454Z,68.81
2023-06-23T05:19:41.016Z,68.81
2023-06-23T05:22:13.146Z,68.52
2023-06-23T05:24:42.485Z,68.44
2023-06-23T05:27:10.380Z,68.31
2023-06-23T05:29:39.601Z,68.06
2023-06-23T05:32:07.735Z,67.89
2023-06-23T05:34:35.111Z,68.16
2023-06-23T05:37:03.097Z,68.21
2023-06-23T05:39:30.902Z,67.99
2023-06-23T05:41:58.479Z,67.68
2023-06-23T05:44:25.896Z,67.50
2023-06-23T05:46:54.593Z,67.05
2023-06-23T05:49:22.818Z,66.75
2023-06-23T05:51:57.430Z,66.80
2023-06-23T05:54:25.418Z,66.94
2023-06-23T05:56:55.085Z,67.03
2023-06-23T05:59:28.909Z,66.86
2023-06-23T06:02:00.453Z,66.97
2023-06-23T06:04:30.519Z,66.60
2023-06-23T06:06:58.536Z,66.13
2023-06-23T06:09:28.638Z,65.91
2023-06-23T06:11:56.697Z,65.64
2023-06-23T06:14:24.489Z,64.52
2023-06-23T06:16:51.998Z,64.34
2023-06-23T06:19:21.970Z,64.97
2023-06-23T06:21:49.554Z,64.68
2023-06-23T06:24:17.147Z,64.21
2023-06-23T06:26:44.567Z,63.63
2023-06-23T06:29:12.368Z,62.95
2023-06-23T06:31:39.911Z,62.72
2023-06-23T06:34:08.037Z,62.80
2023-06-23T06:36:36.329Z,62.31
2023-06-23T06:39:03.997Z,61.90
2023-06-23T06:41:31.659Z,61.74
2023-06-23T06:43:59.194Z,61.63
2023-06-23T06:46:28.196Z,61.70
2023-06-23T06:48:56.739Z,61.57
2023-06-23T06:51:24.267Z,60.94
2023-06-23T06:53:51.712Z,60.60
2023-06-23T06:56:19.160Z,60.90
2023-06-23T06:58:46.639Z,60.95
2023-06-23T07:01:14.513Z,60.43
2023-06-23T07:03:44.453Z,59.74
2023-06-23T07:06:15.502Z,59.69
2023-06-23T07:08:43.963Z,59.65
2023-06-23T07:11:12.198Z,59.42
2023-06-23T07:13:40.442Z,58.75
2023-06-23T07:16:07.877Z,58.21
2023-06-23T07:18:35.323Z,57.47
2023-06-23T07:21:04.527Z,57.72
2023-06-23T07:23:32.319Z,58.16
2023-06-23T07:25:59.707Z,57.83
2023-06-23T07:28:27.194Z,57.61
2023-06-23T07:30:54.647Z,57.26
2023-06-23T07:33:22.126Z,56.56
2023-06-23T07:35:49.600Z,56.75
2023-06-23T07:38:17.125Z,56.05
2023-06-23T07:40:44.868Z,55.08
2023-06-23T07:43:12.435Z,54.25
2023-06-23T07:45:40.336Z,54.29
2023-06-23T07:48:07.824Z,54.79
2023-06-23T07:50:35.393Z,55.03
2023-06-23T07:53:02.823Z,55.07
2023-06-23T07:55:30.270Z,55.13
2023-06-23T07:57:57.741Z,55.12
2023-06-23T08:00:25.180Z,55.13
2023-06-23T08:02:52.781Z,54.23
2023-06-23T08:05:23.399Z,54.39
2023-06-23T08:07:50.850Z,54.28
2023-06-23T08:10:18.279Z,53.89
2023-06-23T08:12:45.682Z,53.73
2023-06-23T08:15:13.091Z,52.77
2023-06-23T08:17:40.577Z,53.06
2023-06-23T08:20:08.625Z,53.06
2023-06-23T08:22:39.563Z,52.24
2023-06-23T08:25:07.864Z,52.74
2023-06-23T08:27:35.550Z,52.24
2023-06-23T08:30:03.186Z,51.99
2023-06-23T08:32:30.635Z,52.65
2023-06-23T08:34:58.172Z,53.37
2023-06-23T08:37:25.726Z,52.74
2023-06-23T08:39:53.102Z,52.35
2023-06-23T08:42:20.574Z,51.57
2023-06-23T08:44:48.728Z,51.72
2023-06-23T08:47:16.462Z,52.14
2023-06-23T08:49:43.948Z,51.62
2023-06-23T08:52:12.052Z,50.77
2023-06-23T08:54:39.627Z,51.05
2023-06-23T08:57:07.847Z,51.25
2023-06-23T08:59:35.451Z,50.94
2023-06-23T09:02:03.130Z,51.01
2023-06-23T09:04:30.872Z,50.61
2023-06-23T09:06:58.389Z,50.69
2023-06-23T09:09:26.768Z,50.77
2023-06-23T09:11:54.171Z,49.48
2023-06-23T09:14:21.585Z,49.36
2023-06-23T09:16:48.947Z,49.91
2023-06-23T09:19:18.646Z,49.45
2023-06-23T09:21:46.950Z,48.64
2023-06-23T09:24:14.423Z,47.42
2023-06-23T09:26:48.766Z,48.09
2023-06-23T09:29:23.869Z,49.13
2023-06-23T09:31:52.525Z,49.15
2023-06-23T09:34:27.292Z,48.25
2023-06-23T09:37:06.640Z,48.66
2023-06-23T09:39:38.357Z,48.76
2023-06-23T09:42:07.661Z,48.52
2023-06-23T09:44:39.253Z,48.21
2023-06-23T09:47:07.208Z,47.61
2023-06-23T09:49:45.142Z,47.59
2023-06-23T09:52:14.248Z,48.07
2023-06-23T09:54:42.284Z,48.79
2023-06-23T09:57:13.849Z,48.93
2023-06-23T09:59:41.991Z,48.41
2023-06-23T10:02:10.672Z,48.32
2023-06-23T10:04:38.647Z,47.34
2023-06-23T10:07:27.447Z,45.92
2023-06-23T10:10:04.744Z,46.30
2023-06-23T10:12:41.608Z,47.99
2023-06-23T10:15:10.091Z,48.26
2023-06-23T10:17:37.835Z,47.80
2023-06-23T10:20:06.670Z,47.81
2023-06-23T10:22:34.230Z,47.94
2023-06-23T10:25:01.730Z,47.02
2023-06-23T10:27:30.347Z,46.70
2023-06-23T10:29:59.575Z,47.02
2023-06-23T10:32:31.434Z,46.70
2023-06-23T10:35:00.718Z,46.95
2023-06-23T10:37:39.598Z,46.59
2023-06-23T10:40:12.257Z,46.60
2023-06-23T10:42:39.671Z,46.42
2023-06-23T10:45:09.613Z,46.27
2023-06-23T10:47:40.478Z,45.81
2023-06-23T10:50:09.505Z,45.40
2023-06-23T10:52:37.174Z,44.70
2023-06-23T10:55:35.066Z,44.60
2023-06-23T10:58:18.921Z,44.27
2023-06-23T11:00:56.135Z,44.12
2023-06-23T11:03:30.489Z,43.31
2023-06-23T11:05:59.050Z,43.50
2023-06-23T11:08:34.436Z,43.57
2023-06-23T11:11:03.030Z,43.05
2023-06-23T11:13:52.891Z,42.23
2023-06-23T11:16:28.398Z,41.96
2023-06-23T11:19:01.278Z,41.99
2023-06-23T11:21:38.816Z,42.68
2023-06-23T11:24:16.104Z,43.03
2023-06-23T11:30:19.059Z,43.99
2023-06-23T11:32:46.548Z,43.15
2023-06-23T11:35:14.007Z,42.34
2023-06-23T11:37:41.454Z,42.34
2023-06-23T11:40:10.255Z,43.05
2023-06-23T11:42:37.979Z,43.47
2023-06-23T11:45:06.014Z,43.22
2023-06-23T11:47:34.716Z,43.45
2023-06-23T11:50:04.023Z,43.05
2023-06-23T11:52:31.422Z,42.71
2023-06-23T11:54:58.953Z,43.10
2023-06-23T11:57:26.430Z,43.01
2023-06-23T11:59:54.256Z,43.11
2023-06-23T12:02:22.104Z,43.08
2023-06-23T12:04:50.937Z,42.72
2023-06-23T12:07:18.766Z,42.60
2023-06-23T12:09:47.090Z,42.50
2023-06-23T12:12:17.233Z,42.40
2023-06-23T12:14:45.644Z,42.68
2023-06-23T12:17:13.753Z,43.53
2023-06-23T12:19:44.439Z,43.67
2023-06-23T12:22:19.391Z,42.97
2023-06-23T12:24:47.595Z,43.36
2023-06-23T12:27:15.729Z,43.24
2023-06-23T12:29:43.259Z,43.63
2023-06-23T12:32:10.904Z,43.72
2023-06-23T12:34:43.760Z,43.71
2023-06-23T12:37:18.975Z,44.65
2023-06-23T12:39:53.778Z,45.05
2023-06-23T12:42:22.027Z,45.16
2023-06-23T12:44:50.504Z,45.25
2023-06-23T12:47:21.028Z,45.07
2023-06-23T12:49:48.707Z,44.75
2023-06-23T12:52:16.765Z,44.52
2023-06-23T12:54:45.002Z,44.11
2023-06-23T12:57:13.169Z,43.95
2023-06-23T12:59:40.660Z,44.73
2023-06-23T13:02:09.895Z,44.40
2023-06-23T13:04:37.939Z,44.73
2023-06-23T13:07:05.751Z,44.25
2023-06-23T13:09:33.177Z,44.69
2023-06-23T13:12:00.644Z,44.74
2023-06-23T13:14:28.210Z,45.08
2023-06-23T13:16:55.638Z,44.20
2023-06-23T13:19:23.033Z,44.02
2023-06-23T13:21:52.915Z,44.03
2023-06-23T13:24:20.438Z,43.87
2023-06-23T13:26:49.359Z,44.21
2023-06-23T13:29:18.395Z,44.35
2023-06-23T13:31:46.134Z,44.61
2023-06-23T13:34:13.862Z,44.68
2023-06-23T13:36:41.319Z,44.65
2023-06-23T13:39:08.767Z,44.89
2023-06-23T13:41:36.229Z,44.71
2023-06-23T13:44:03.693Z,44.53
2023-06-23T13:46:31.211Z,44.09
2023-06-23T13:48:58.636Z,44.03
2023-06-23T13:51:26.068Z,43.89
2023-06-23T13:53:53.487Z,44.09
2023-06-23T13:56:21.057Z,44.06
2023-06-23T13:58:48.487Z,44.06
2023-06-23T14:01:15.925Z,43.87
2023-06-23T14:03:43.543Z,44.37
2023-06-23T14:06:11.157Z,43.94
2023-06-23T14:08:39.384Z,44.15
2023-06-23T14:11:06.784Z,43.94
2023-06-23T14:14:37.390Z,44.36
2023-06-23T14:17:05.303Z,44.37
2023-06-23T14:19:32.677Z,44.36
2023-06-23T14:22:01.316Z,44.77
2023-06-23T14:24:30.907Z,45.23
2023-06-23T14:26:58.324Z,45.31
2023-06-23T14:29:25.894Z,45.12
2023-06-23T14:31:53.352Z,45.50
2023-06-23T14:34:20.845Z,45.96
2023-06-23T14:36:50.642Z,45.93
2023-06-23T14:39:18.078Z,45.42
2023-06-23T14:41:46.455Z,45.34
2023-06-23T14:44:14.008Z,45.79
2023-06-23T14:46:41.609Z,46.17
2023-06-23T14:49:09.198Z,45.91
2023-06-23T14:51:36.702Z,45.84
2023-06-23T14:54:04.244Z,45.82
2023-06-23T14:56:31.880Z,46.44
2023-06-23T14:58:59.794Z,46.62
2023-06-23T15:01:27.369Z,46.26
2023-06-23T15:03:55.771Z,46.13
2023-06-23T15:06:24.407Z,46.11
2023-06-23T15:08:51.869Z,46.05
2023-06-23T15:11:19.339Z,45.66
2023-06-23T15:13:46.822Z,45.62
2023-06-23T15:16:14.622Z,45.85
2023-06-23T15:18:42.111Z,45.88
2023-06-23T15:21:09.743Z,46.00
2023-06-23T15:23:37.738Z,45.84
2023-06-23T15:26:05.240Z,45.77
2023-06-23T15:28:32.674Z,46.17
2023-06-23T15:31:00.967Z,45.87
2023-06-23T15:33:29.377Z,45.76
2023-06-23T15:35:56.836Z,46.27
2023-06-23T15:38:27.581Z,46.77
2023-06-23T15:40:54.969Z,46.72
2023-06-23T15:43:23.576Z,46.46
2023-06-23T15:45:51.230Z,46.65
2023-06-23T15:48:20.901Z,47.21
2023-06-23T15:50:48.863Z,47.41
2023-06-23T15:53:16.598Z,47.48
2023-06-23T15:55:44.008Z,47.51
2023-06-23T15:58:11.461Z,47.31
2023-06-23T16:00:39.154Z,47.27
2023-06-23T16:03:06.821Z,47.39
2023-06-23T16:05:35.944Z,47.20
2023-06-23T16:08:04.733Z,47.52
2023-06-23T16:10:34.442Z,47.75
2023-06-23T16:13:02.010Z,48.13
2023-06-23T16:15:29.544Z,48.23
2023-06-23T16:17:57.040Z,48.33
2023-06-23T16:20:24.465Z,48.07
2023-06-23T16:22:51.900Z,47.95
2023-06-23T16:25:19.473Z,47.92
2023-06-23T16:27:46.916Z,48.19
2023-06-23T16:30:14.547Z,48.33
2023-06-23T16:32:42.139Z,48.36
2023-06-23T16:35:09.793Z,48.02
2023-06-23T16:37:37.244Z,48.03
2023-06-23T16:40:05.375Z,48.09
2023-06-23T16:42:32.826Z,48.30
2023-06-23T16:45:00.355Z,48.38
2023-06-23T16:47:30.018Z,48.71
2023-06-23T16:49:57.570Z,49.00
2023-06-23T16:52:25.012Z,49.07
2023-06-23T16:54:52.540Z,49.33
2023-06-23T16:57:20.211Z,49.48
2023-06-23T16:59:47.696Z,49.41
2023-06-23T17:02:20.356Z,49.40
2023-06-23T17:04:47.910Z,49.36
2023-06-23T17:07:15.374Z,49.62
2023-06-23T17:09:42.885Z,50.00
2023-06-23T17:12:17.876Z,50.16
2023-06-23T17:14:47.188Z,50.24
2023-06-23T17:17:14.595Z,50.45
2023-06-23T17:19:42.127Z,50.67
2023-06-23T17:22:09.664Z,51.13
2023-06-23T17:24:37.073Z,51.25
2023-06-23T17:27:05.272Z,51.42
2023-06-23T17:29:35.970Z,51.80
2023-06-23T17:32:03.719Z,52.21
2023-06-23T17:34:31.273Z,52.33
2023-06-23T17:36:58.758Z,52.51
2023-06-23T17:39:26.271Z,52.53
2023-06-23T17:41:53.695Z,52.91
2023-06-23T17:44:21.110Z,53.19
2023-06-23T17:46:48.535Z,53.32
2023-06-23T17:49:15.948Z,53.68
2023-06-23T17:51:43.582Z,53.62
2023-06-23T17:54:11.028Z,53.63
2023-06-23T17:56:38.503Z,54.24
2023-06-23T17:59:10.425Z,54.86
2023-06-23T18:01:38.465Z,55.17
2023-06-23T18:04:08.463Z,55.44
2023-06-23T18:06:39.467Z,55.77
2023-06-23T18:09:06.996Z,55.88
2023-06-23T18:11:34.404Z,56.17
2023-06-23T18:14:01.793Z,56.29
2023-06-23T18:16:29.673Z,56.68
2023-06-23T18:18:57.148Z,57.17
2023-06-23T18:21:26.999Z,57.69
2023-06-23T18:23:55.085Z,58.41
2023-06-23T18:26:22.525Z,57.06
2023-06-23T18:28:50.077Z,54.04
2023-06-23T18:31:17.618Z,52.58
2023-06-23T18:33:47.554Z,53.05
2023-06-23T18:36:15.426Z,54.09
2023-06-23T18:38:42.844Z,55.65
2023-06-23T18:41:10.333Z,57.66
2023-06-23T18:43:37.787Z,59.10
2023-06-23T18:46:05.346Z,60.17
2023-06-23T18:48:34.763Z,60.98
2023-06-23T18:51:02.314Z,61.84
2023-06-23T18:53:34.261Z,62.65
2023-06-23T18:56:02.464Z,63.42
